createdAt,value
2019-05-23T00:00:50.645Z,81.19
2019-05-23T00:03:38.279Z,81.84
2019-05-23T00:06:15.474Z,81.58
2019-05-23T00:08:47.229Z,82.15
2019-05-23T00:11:30.554Z,82.05
2019-05-23T00:14:06.085Z,82.31
2019-05-23T00:16:36.798Z,81.98
2019-05-23T00:19:08.165Z,82.62
2019-05-23T00:21:39.365Z,82.91
2019-05-23T00:24:10.962Z,82.89
2019-05-23T00:26:41.433Z,83.59
2019-05-23T00:29:12.420Z,83.69
2019-05-23T00:31:49.513Z,84.32
2019-05-23T00:34:19.150Z,83.75
2019-05-23T00:36:49.700Z,84.70
2019-05-23T00:39:20.552Z,84.32
2019-05-23T00:41:50.846Z,83.29
2019-05-23T00:44:20.999Z,83.33
2019-05-23T00:46:51.170Z,84.33
2019-05-23T00:49:22.298Z,83.91
2019-05-23T00:51:53.066Z,84.41
2019-05-23T00:54:23.093Z,84.13
2019-05-23T00:56:54.919Z,84.19
2019-05-23T00:59:27.452Z,84.30
2019-05-23T01:01:58.146Z,83.58
2019-05-23T01:04:28.333Z,83.43
2019-05-23T01:06:58.556Z,83.89
2019-05-23T01:09:28.748Z,83.76
2019-05-23T01:11:58.500Z,84.35
2019-05-23T01:14:28.874Z,83.50
2019-05-23T01:16:59.115Z,83.33
2019-05-23T01:19:29.184Z,83.72
2019-05-23T01:22:03.082Z,83.73
2019-05-23T01:24:34.913Z,83.77
2019-05-23T01:27:06.062Z,84.16
2019-05-23T01:29:50.051Z,83.76
2019-05-23T01:32:23.727Z,82.98
2019-05-23T01:34:54.056Z,83.24
2019-05-23T01:37:24.591Z,83.47
2019-05-23T01:39:54.197Z,83.81
2019-05-23T01:42:24.449Z,83.64
2019-05-23T01:44:55.963Z,83.53
2019-05-23T01:47:27.823Z,82.96
2019-05-23T01:49:58.235Z,82.98
2019-05-23T01:52:28.948Z,83.29
2019-05-23T01:54:59.581Z,83.63
2019-05-23T01:57:32.013Z,83.83
2019-05-23T02:00:10.030Z,84.51
2019-05-23T02:02:37.916Z,84.26
2019-05-23T02:05:10.193Z,84.45
2019-05-23T02:07:40.538Z,84.25
2019-05-23T02:10:12.710Z,83.75
2019-05-23T02:12:42.613Z,84.06
2019-05-23T02:15:12.907Z,83.56
2019-05-23T02:17:42.476Z,83.99
2019-05-23T02:20:14.352Z,84.00
2019-05-23T02:22:45.016Z,84.20
2019-05-23T02:25:17.001Z,83.62
2019-05-23T02:27:48.571Z,83.46
2019-05-23T02:30:33.888Z,83.79
2019-05-23T02:32:54.150Z,83.61
2019-05-23T02:35:23.760Z,83.46
2019-05-23T02:37:55.226Z,84.21
2019-05-23T02:40:43.050Z,84.62
2019-05-23T02:43:17.391Z,83.79
2019-05-23T02:45:53.697Z,84.85
2019-05-23T02:48:25.422Z,84.08
2019-05-23T02:51:08.942Z,84.01
2019-05-23T02:53:39.749Z,84.03
2019-05-23T02:56:14.401Z,83.71
2019-05-23T02:59:13.563Z,84.31
2019-05-23T03:02:16.662Z,83.22
2019-05-23T03:04:47.881Z,83.38
2019-05-23T03:07:20.318Z,83.77
2019-05-23T03:09:51.881Z,84.32
2019-05-23T03:12:25.142Z,84.49
2019-05-23T03:14:53.669Z,84.55
2019-05-23T03:17:27.125Z,84.69
2019-05-23T03:20:03.021Z,84.11
2019-05-23T03:22:42.038Z,83.72
2019-05-23T03:25:39.085Z,84.81
2019-05-23T03:28:15.344Z,84.32
2019-05-23T03:30:52.219Z,84.41
2019-05-23T03:33:22.284Z,84.07
2019-05-23T03:35:56.443Z,84.61
2019-05-23T03:38:27.997Z,84.04
2019-05-23T03:40:58.298Z,84.46
2019-05-23T03:43:29.204Z,84.45
2019-05-23T03:46:07.871Z,84.43
2019-05-23T03:48:38.647Z,84.18
2019-05-23T03:51:10.271Z,83.95
2019-05-23T03:53:42.600Z,84.00
2019-05-23T03:56:13.602Z,83.26
2019-05-23T03:58:43.402Z,83.71
2019-05-23T04:01:14.895Z,83.05
2019-05-23T04:03:45.070Z,83.57
2019-05-23T04:06:15.540Z,83.36
2019-05-23T04:08:45.483Z,84.02
2019-05-23T04:11:15.363Z,83.91
2019-05-23T04:13:45.177Z,82.87
2019-05-23T04:16:14.918Z,84.47
2019-05-23T04:18:44.544Z,85.87
2019-05-23T04:21:14.519Z,86.30
2019-05-23T04:23:44.238Z,86.63
2019-05-23T04:26:14.861Z,85.97
2019-05-23T04:28:44.922Z,86.06
2019-05-23T04:31:14.569Z,86.80
2019-05-23T04:33:44.863Z,86.16
2019-05-23T04:36:14.567Z,86.22
2019-05-23T04:38:44.531Z,86.82
2019-05-23T04:41:14.611Z,88.02
2019-05-23T04:43:44.248Z,86.71
2019-05-23T04:46:15.439Z,87.04
2019-05-23T04:48:45.325Z,86.32
2019-05-23T04:51:15.216Z,88.96
2019-05-23T04:53:44.977Z,85.96
2019-05-23T04:56:14.832Z,86.19
2019-05-23T04:58:45.681Z,86.11
2019-05-23T05:01:16.829Z,86.69
2019-05-23T05:03:47.085Z,87.25
2019-05-23T05:06:16.711Z,87.31
2019-05-23T05:08:47.060Z,87.08
2019-05-23T05:11:17.823Z,88.72
2019-05-23T05:13:47.947Z,87.30
2019-05-23T05:16:18.012Z,86.92
2019-05-23T05:18:47.996Z,86.96
2019-05-23T05:21:18.031Z,85.95
2019-05-23T05:23:48.070Z,86.27
2019-05-23T05:26:24.102Z,85.76
2019-05-23T05:28:54.033Z,86.77
2019-05-23T05:31:24.916Z,86.08
2019-05-23T05:33:54.705Z,84.74
2019-05-23T05:36:25.017Z,84.90
2019-05-23T05:38:58.145Z,84.43
2019-05-23T05:41:28.340Z,85.32
2019-05-23T05:43:58.236Z,85.25
2019-05-23T05:46:28.384Z,85.48
2019-05-23T05:48:59.784Z,84.06
2019-05-23T05:51:31.026Z,84.28
2019-05-23T05:54:01.377Z,85.56
2019-05-23T05:56:31.061Z,84.54
2019-05-23T05:59:00.873Z,86.08
2019-05-23T06:01:34.337Z,85.82
2019-05-23T06:04:03.310Z,84.41
2019-05-23T06:06:34.675Z,85.59
2019-05-23T06:09:16.044Z,85.79
2019-05-23T06:11:45.869Z,86.51
2019-05-23T06:14:16.032Z,85.92
2019-05-23T06:16:46.610Z,87.39
2019-05-23T06:19:16.626Z,86.48
2019-05-23T06:21:46.724Z,86.12
2019-05-23T06:24:16.778Z,86.16
2019-05-23T06:26:47.059Z,86.27
2019-05-23T06:29:16.953Z,86.31
2019-05-23T06:31:46.843Z,85.87
2019-05-23T06:34:16.705Z,85.95
2019-05-23T06:36:47.254Z,85.60
2019-05-23T06:39:17.639Z,84.66
2019-05-23T06:41:47.489Z,85.80
2019-05-23T06:44:18.889Z,85.93
2019-05-23T06:46:49.015Z,85.79
2019-05-23T06:49:18.752Z,86.09
2019-05-23T06:51:48.363Z,86.65
2019-05-23T06:54:18.004Z,86.15
2019-05-23T06:56:47.936Z,86.74
2019-05-23T06:59:17.638Z,84.35
2019-05-23T07:01:47.336Z,85.15
2019-05-23T07:04:18.912Z,86.62
2019-05-23T07:06:48.897Z,85.88
2019-05-23T07:09:20.001Z,84.47
2019-05-23T07:11:51.740Z,84.90
2019-05-23T07:14:21.439Z,84.01
2019-05-23T07:16:50.974Z,83.89
2019-05-23T07:19:21.515Z,85.79
2019-05-23T07:21:51.492Z,86.07
2019-05-23T07:24:21.117Z,84.40
2019-05-23T07:26:51.088Z,83.98
2019-05-23T07:29:21.375Z,84.34
2019-05-23T07:31:51.161Z,85.42
2019-05-23T07:34:21.525Z,84.31
2019-05-23T07:36:51.461Z,84.37
2019-05-23T07:39:21.449Z,84.95
2019-05-23T07:41:52.556Z,85.06
2019-05-23T07:44:22.533Z,86.88
2019-05-23T07:46:52.605Z,87.05
2019-05-23T07:49:22.472Z,84.97
2019-05-23T07:51:52.681Z,84.04
2019-05-23T07:54:24.089Z,83.43
2019-05-23T07:56:54.315Z,83.49
2019-05-23T07:59:24.318Z,83.02
2019-05-23T08:02:09.961Z,84.10
2019-05-23T08:04:39.800Z,84.75
2019-05-23T08:07:11.479Z,85.89
2019-05-23T08:09:41.558Z,86.11
2019-05-23T08:12:11.161Z,85.42
2019-05-23T08:14:40.947Z,84.77
2019-05-23T08:17:11.291Z,84.37
2019-05-23T08:19:49.546Z,85.21
2019-05-23T08:22:12.772Z,83.50
2019-05-23T08:24:42.908Z,84.90
2019-05-23T08:27:13.381Z,84.22
2019-05-23T08:29:43.363Z,84.65
2019-05-23T08:32:13.250Z,83.67
2019-05-23T08:34:43.462Z,83.11
2019-05-23T08:37:14.224Z,83.46
2019-05-23T08:39:44.628Z,82.90
2019-05-23T08:42:14.665Z,83.85
2019-05-23T08:44:44.886Z,85.11
2019-05-23T08:47:15.406Z,85.48
2019-05-23T08:49:45.021Z,84.83
2019-05-23T08:52:14.998Z,83.79
2019-05-23T08:54:45.812Z,84.83
2019-05-23T08:57:16.937Z,84.43
2019-05-23T08:59:46.551Z,84.82
2019-05-23T09:02:16.474Z,83.50
2019-05-23T09:05:03.376Z,81.35
2019-05-23T09:07:18.290Z,82.03
2019-05-23T09:09:48.889Z,80.84
2019-05-23T09:12:19.183Z,80.73
2019-05-23T09:14:49.351Z,80.06
2019-05-23T09:17:19.418Z,81.59
2019-05-23T09:19:48.936Z,79.75
2019-05-23T09:22:18.822Z,79.54
2019-05-23T09:24:48.489Z,80.94
2019-05-23T09:27:18.112Z,81.93
2019-05-23T09:29:47.836Z,80.69
2019-05-23T09:32:18.611Z,82.27
2019-05-23T09:34:48.211Z,82.60
2019-05-23T09:37:18.388Z,82.09
2019-05-23T09:39:49.490Z,82.55
2019-05-23T09:42:19.110Z,82.60
2019-05-23T09:44:49.097Z,81.78
2019-05-23T09:47:18.752Z,83.78
2019-05-23T09:49:55.868Z,83.43
2019-05-23T09:52:21.807Z,81.48
2019-05-23T09:54:51.548Z,82.01
2019-05-23T09:57:21.865Z,83.21
2019-05-23T09:59:51.787Z,83.31
2019-05-23T10:02:21.435Z,82.22
2019-05-23T10:04:52.143Z,81.98
2019-05-23T10:07:22.104Z,81.12
2019-05-23T10:09:51.774Z,81.50
2019-05-23T10:12:22.653Z,81.91
2019-05-23T10:14:52.530Z,81.85
2019-05-23T10:17:22.454Z,80.77
2019-05-23T10:19:52.482Z,80.66
2019-05-23T10:22:22.361Z,80.79
2019-05-23T10:24:52.098Z,81.07
2019-05-23T10:27:21.992Z,80.28
2019-05-23T10:29:51.642Z,78.14
2019-05-23T10:32:21.669Z,77.40
2019-05-23T10:34:51.201Z,77.23
2019-05-23T10:37:21.177Z,77.45
2019-05-23T10:39:55.272Z,78.43
2019-05-23T10:42:27.861Z,79.48
2019-05-23T10:44:57.553Z,78.38
2019-05-23T10:47:27.619Z,77.09
2019-05-23T10:49:57.404Z,78.56
2019-05-23T10:52:27.215Z,77.98
2019-05-23T10:54:56.908Z,76.05
2019-05-23T10:57:26.869Z,75.81
2019-05-23T10:59:56.987Z,74.85
2019-05-23T11:02:27.332Z,74.29
2019-05-23T11:04:57.423Z,74.74
2019-05-23T11:07:27.550Z,73.14
2019-05-23T11:09:57.204Z,73.06
2019-05-23T11:12:27.883Z,74.58
2019-05-23T11:14:58.069Z,74.35
2019-05-23T11:17:27.714Z,73.82
2019-05-23T11:19:57.404Z,74.80
2019-05-23T11:22:27.043Z,74.12
2019-05-23T11:24:56.985Z,75.18
2019-05-23T11:27:26.867Z,75.56
2019-05-23T11:29:56.646Z,75.92
2019-05-23T11:32:26.649Z,77.41
2019-05-23T11:34:56.275Z,77.79
2019-05-23T11:37:25.974Z,78.51
2019-05-23T11:39:55.844Z,77.75
2019-05-23T11:42:25.736Z,76.23
2019-05-23T11:44:55.362Z,75.82
2019-05-23T11:47:31.021Z,74.20
2019-05-23T11:49:58.219Z,72.72
2019-05-23T11:52:28.199Z,72.35
2019-05-23T11:54:57.939Z,72.20
2019-05-23T11:57:27.565Z,71.64
2019-05-23T11:59:57.655Z,73.84
2019-05-23T12:02:27.032Z,73.08
2019-05-23T12:04:58.571Z,71.48
2019-05-23T12:07:29.912Z,72.82
2019-05-23T12:09:59.587Z,73.28
2019-05-23T12:12:29.437Z,73.34
2019-05-23T12:14:59.122Z,71.33
2019-05-23T12:17:31.095Z,72.86
2019-05-23T12:20:00.723Z,71.65
2019-05-23T12:22:30.603Z,73.24
2019-05-23T12:25:18.270Z,74.74
2019-05-23T12:27:32.012Z,75.84
2019-05-23T12:30:01.787Z,74.86
2019-05-23T12:32:31.460Z,75.66
2019-05-23T12:35:10.478Z,73.16
2019-05-23T12:37:32.577Z,72.29
2019-05-23T12:40:03.120Z,72.15
2019-05-23T12:42:32.826Z,73.45
2019-05-23T12:45:03.492Z,72.78
2019-05-23T12:47:34.782Z,73.67
2019-05-23T12:50:10.421Z,73.67
2019-05-23T12:52:40.133Z,74.02
2019-05-23T12:55:10.654Z,74.92
2019-05-23T12:57:40.637Z,74.08
2019-05-23T13:00:12.972Z,74.20
2019-05-23T13:02:42.936Z,75.10
2019-05-23T13:05:13.009Z,73.76
2019-05-23T13:07:43.041Z,74.08
2019-05-23T13:10:12.899Z,74.44
2019-05-23T13:12:42.875Z,75.04
2019-05-23T13:15:14.515Z,73.99
2019-05-23T13:17:44.348Z,74.49
2019-05-23T13:20:14.612Z,74.68
2019-05-23T13:22:44.617Z,75.01
2019-05-23T13:25:15.716Z,74.78
2019-05-23T13:27:45.381Z,74.67
2019-05-23T13:30:17.134Z,73.34
2019-05-23T13:32:47.611Z,74.15
2019-05-23T13:35:17.379Z,73.76
2019-05-23T13:37:53.500Z,74.17
2019-05-23T13:40:19.073Z,74.24
2019-05-23T13:42:49.036Z,72.71
2019-05-23T13:45:19.452Z,72.68
2019-05-23T13:47:49.340Z,72.89
2019-05-23T13:50:20.206Z,72.40
2019-05-23T13:52:50.672Z,70.89
2019-05-23T13:55:40.277Z,70.96
2019-05-23T13:58:11.904Z,71.30
2019-05-23T14:00:43.230Z,71.59
2019-05-23T14:03:13.157Z,71.87
2019-05-23T14:05:43.248Z,73.17
2019-05-23T14:08:14.526Z,72.58
2019-05-23T14:11:03.570Z,73.08
2019-05-23T14:13:34.012Z,72.28
2019-05-23T14:16:05.947Z,73.69
2019-05-23T14:18:36.700Z,73.35
2019-05-23T14:21:06.982Z,72.21
2019-05-23T14:23:36.764Z,71.43
2019-05-23T14:26:06.827Z,71.48
2019-05-23T14:28:36.604Z,71.33
2019-05-23T14:31:17.491Z,71.63
2019-05-23T14:33:51.589Z,71.30
2019-05-23T14:36:33.086Z,72.27
2019-05-23T14:39:04.555Z,73.19
2019-05-23T14:41:45.128Z,73.79
2019-05-23T14:44:14.992Z,74.55
2019-05-23T14:47:03.397Z,75.10
2019-05-23T14:49:38.042Z,74.16
2019-05-23T14:52:27.671Z,72.98
2019-05-23T14:54:58.964Z,72.46
2019-05-23T14:57:28.659Z,73.27
2019-05-23T14:59:58.617Z,71.32
2019-05-23T15:02:29.389Z,72.60
2019-05-23T15:04:59.977Z,72.90
2019-05-23T15:07:30.493Z,74.69
2019-05-23T15:10:00.217Z,74.78
2019-05-23T15:12:29.934Z,73.89
2019-05-23T15:15:00.304Z,74.31
2019-05-23T15:17:31.071Z,74.23
2019-05-23T15:20:00.845Z,72.88
2019-05-23T15:22:31.477Z,72.59
2019-05-23T15:25:01.271Z,72.14
2019-05-23T15:27:33.212Z,72.08
2019-05-23T15:30:02.628Z,72.56
2019-05-23T15:32:32.653Z,72.18
2019-05-23T15:35:02.813Z,72.02
2019-05-23T15:37:33.410Z,72.55
2019-05-23T15:40:03.412Z,72.61
2019-05-23T15:42:33.734Z,71.08
2019-05-23T15:45:04.043Z,69.68
2019-05-23T15:47:35.541Z,70.17
2019-05-23T15:50:11.480Z,69.89
2019-05-23T15:52:40.989Z,68.01
2019-05-23T15:55:22.029Z,65.53
2019-05-23T15:57:53.526Z,65.60
2019-05-23T16:00:41.311Z,67.79
2019-05-23T16:03:13.897Z,68.92
2019-05-23T16:05:44.016Z,69.56
2019-05-23T16:08:14.426Z,68.62
2019-05-23T16:10:44.603Z,70.76
2019-05-23T16:13:14.753Z,71.12
2019-05-23T16:15:45.540Z,70.00
2019-05-23T16:18:15.305Z,70.27
2019-05-23T16:20:45.795Z,69.31
2019-05-23T16:23:15.846Z,69.46
2019-05-23T16:25:45.470Z,68.43
2019-05-23T16:28:15.384Z,69.55
2019-05-23T16:30:45.274Z,70.43
2019-05-23T16:33:15.128Z,72.36
2019-05-23T16:35:44.842Z,70.74
2019-05-23T16:38:14.746Z,69.90
2019-05-23T16:40:45.213Z,70.03
2019-05-23T16:43:15.507Z,70.82
2019-05-23T16:45:45.543Z,71.43
2019-05-23T16:48:15.530Z,71.93
2019-05-23T16:50:45.611Z,71.60
2019-05-23T16:53:15.957Z,72.19
2019-05-23T16:55:48.616Z,72.61
2019-05-23T16:58:35.403Z,73.01
2019-05-23T17:01:23.317Z,73.40
2019-05-23T17:03:45.149Z,73.46
2019-05-23T17:06:29.844Z,74.05
2019-05-23T17:09:14.694Z,73.95
2019-05-23T17:11:46.470Z,73.41
2019-05-23T17:14:17.805Z,73.69
2019-05-23T17:16:54.871Z,73.74
2019-05-23T17:19:39.758Z,73.95
2019-05-23T17:22:11.436Z,73.83
2019-05-23T17:24:45.748Z,73.26
2019-05-23T17:27:23.410Z,73.45
2019-05-23T17:29:54.741Z,74.86
2019-05-23T17:32:26.148Z,74.18
2019-05-23T17:34:56.778Z,73.54
2019-05-23T17:37:26.699Z,73.81
2019-05-23T17:39:56.980Z,73.96
2019-05-23T17:42:27.736Z,73.43
2019-05-23T17:44:57.724Z,73.23
2019-05-23T17:47:28.825Z,73.32
2019-05-23T17:49:58.708Z,72.84
2019-05-23T17:52:28.470Z,72.53
2019-05-23T17:54:58.357Z,73.20
2019-05-23T17:57:29.129Z,72.84
2019-05-23T17:59:59.110Z,73.62
2019-05-23T18:02:29.287Z,73.97
2019-05-23T18:04:59.110Z,74.59
2019-05-23T18:07:28.838Z,74.79
2019-05-23T18:09:58.869Z,73.75
2019-05-23T18:12:29.011Z,73.64
2019-05-23T18:14:59.088Z,73.82
2019-05-23T18:17:31.361Z,73.90
2019-05-23T18:20:03.446Z,74.40
2019-05-23T18:22:34.656Z,73.85
2019-05-23T18:25:09.764Z,74.77
2019-05-23T18:27:40.514Z,74.79
2019-05-23T18:30:12.259Z,74.59
2019-05-23T18:32:42.095Z,75.63
2019-05-23T18:35:12.425Z,75.45
2019-05-23T18:37:42.205Z,75.77
2019-05-23T18:40:12.448Z,75.47
2019-05-23T18:42:42.796Z,75.17
2019-05-23T18:45:13.562Z,75.37
2019-05-23T18:47:44.166Z,75.55
2019-05-23T18:50:15.344Z,76.11
2019-05-23T18:52:45.086Z,75.68
2019-05-23T18:55:17.191Z,75.34
2019-05-23T18:57:46.985Z,75.01
2019-05-23T19:00:17.468Z,75.12
2019-05-23T19:02:47.689Z,74.38
2019-05-23T19:05:17.566Z,74.73
2019-05-23T19:07:47.256Z,75.14
2019-05-23T19:10:18.088Z,73.98
2019-05-23T19:12:48.994Z,74.64
2019-05-23T19:15:19.353Z,75.16
2019-05-23T19:17:49.664Z,74.74
2019-05-23T19:20:20.197Z,75.69
2019-05-23T19:22:50.171Z,74.91
2019-05-23T19:25:21.598Z,74.68
2019-05-23T19:27:51.495Z,74.89
2019-05-23T19:30:21.619Z,74.92
2019-05-23T19:32:51.864Z,74.26
2019-05-23T19:35:22.764Z,75.10
2019-05-23T19:37:52.967Z,75.33
2019-05-23T19:40:23.824Z,75.29
2019-05-23T19:42:53.613Z,74.84
2019-05-23T19:45:23.942Z,76.11
2019-05-23T19:47:54.036Z,75.88
2019-05-23T19:50:25.925Z,76.41
2019-05-23T19:52:56.509Z,76.97
2019-05-23T19:55:26.928Z,75.46
2019-05-23T19:57:56.885Z,75.31
2019-05-23T20:00:27.561Z,75.25
2019-05-23T20:02:59.023Z,74.75
2019-05-23T20:05:34.310Z,74.87
2019-05-23T20:08:04.872Z,75.23
2019-05-23T20:10:35.431Z,74.04
2019-05-23T20:13:06.131Z,74.98
2019-05-23T20:15:36.474Z,74.61
2019-05-23T20:18:07.855Z,74.90
2019-05-23T20:20:40.060Z,74.60
2019-05-23T20:23:10.253Z,75.37
2019-05-23T20:25:40.470Z,76.32
2019-05-23T20:28:10.804Z,75.65
2019-05-23T20:30:52.499Z,74.39
2019-05-23T20:33:22.548Z,74.74
2019-05-23T20:35:52.783Z,73.58
2019-05-23T20:38:23.254Z,74.23
2019-05-23T20:40:54.040Z,72.90
2019-05-23T20:43:23.653Z,73.66
2019-05-23T20:45:56.093Z,74.01
2019-05-23T20:48:26.096Z,73.57
2019-05-23T20:50:56.610Z,74.15
2019-05-23T20:53:26.559Z,73.92
2019-05-23T20:55:56.229Z,73.66
2019-05-23T20:58:28.025Z,73.12
2019-05-23T21:01:02.536Z,73.01
2019-05-23T21:03:35.487Z,73.31
2019-05-23T21:06:07.064Z,74.02
2019-05-23T21:08:37.390Z,72.55
2019-05-23T21:11:07.053Z,72.56
2019-05-23T21:13:36.755Z,72.03
2019-05-23T21:16:06.782Z,72.68
2019-05-23T21:18:36.563Z,71.53
2019-05-23T21:21:06.823Z,72.26
2019-05-23T21:23:37.417Z,71.54
2019-05-23T21:26:07.213Z,71.32
2019-05-23T21:28:37.248Z,69.94
2019-05-23T21:31:08.702Z,70.51
2019-05-23T21:33:38.419Z,70.65
2019-05-23T21:36:08.164Z,71.47
2019-05-23T21:38:37.988Z,70.15
2019-05-23T21:41:07.707Z,70.49
2019-05-23T21:43:37.453Z,69.52
2019-05-23T21:46:08.758Z,70.08
2019-05-23T21:48:40.349Z,70.26
2019-05-23T21:51:10.050Z,70.33
2019-05-23T21:53:40.213Z,70.98
2019-05-23T21:56:10.053Z,70.44
2019-05-23T21:58:39.876Z,69.49
2019-05-23T22:01:10.714Z,69.64
2019-05-23T22:03:51.118Z,69.48
2019-05-23T22:06:30.486Z,69.90
2019-05-23T22:09:01.924Z,70.21
2019-05-23T22:11:31.608Z,69.67
2019-05-23T22:14:01.255Z,70.10
2019-05-23T22:16:30.863Z,70.63
2019-05-23T22:19:00.555Z,70.67
2019-05-23T22:21:30.516Z,69.97
2019-05-23T22:24:00.329Z,70.13
2019-05-23T22:26:30.039Z,70.58
2019-05-23T22:29:00.467Z,70.21
2019-05-23T22:31:30.067Z,70.79
2019-05-23T22:34:20.089Z,71.17
2019-05-23T22:36:49.690Z,70.82
2019-05-23T22:39:19.686Z,71.74
2019-05-23T22:41:49.403Z,72.43
2019-05-23T22:44:19.348Z,71.87
2019-05-23T22:46:49.132Z,72.44
2019-05-23T22:49:18.862Z,72.63
2019-05-23T22:51:48.468Z,72.73
2019-05-23T22:54:18.088Z,73.21
2019-05-23T22:56:47.672Z,72.83
2019-05-23T22:59:17.309Z,74.36
2019-05-23T23:01:47.051Z,74.00
2019-05-23T23:04:17.169Z,74.49
2019-05-23T23:06:46.708Z,73.80
2019-05-23T23:09:16.325Z,74.39
2019-05-23T23:11:46.278Z,74.21
2019-05-23T23:14:15.889Z,74.40
2019-05-23T23:16:46.293Z,74.84
2019-05-23T23:19:16.125Z,74.86
2019-05-23T23:21:45.679Z,74.47
2019-05-23T23:24:15.214Z,75.09
2019-05-23T23:26:45.769Z,73.71
2019-05-23T23:29:15.403Z,74.13
2019-05-23T23:31:45.026Z,74.05
2019-05-23T23:34:14.758Z,73.53
2019-05-23T23:36:44.304Z,73.33
2019-05-23T23:39:14.175Z,73.74
2019-05-23T23:41:43.767Z,74.60
2019-05-23T23:44:13.708Z,74.96
2019-05-23T23:47:00.954Z,74.36
2019-05-23T23:49:48.429Z,75.01
2019-05-23T23:52:35.577Z,74.90
2019-05-23T23:55:24.864Z,74.57
2019-05-23T23:57:59.856Z,74.67
